sensor_id;sensor_type;location;lat;lon;timestamp;P1;durP1;ratioP1;P2;durP2;ratioP2
9834;SDS011;69850;50.942;13.748;2024-01-07T00:01:10;52.90;;;24.70;;
9834;SDS011;69850;50.942;13.748;2024-01-07T00:04:31;45.30;;;22.92;;
9834;SDS011;69850;50.942;13.748;2024-01-07T00:07:54;39.72;;;15.90;;
9834;SDS011;69850;50.942;13.748;2024-01-07T00:11:15;54.25;;;25.98;;
9834;SDS011;69850;50.942;13.748;2024-01-07T00:14:35;49.38;;;24.15;;
9834;SDS011;69850;50.942;13.748;2024-01-07T00:17:56;48.47;;;23.55;;
9834;SDS011;69850;50.942;13.748;2024-01-07T00:21:17;47.03;;;23.25;;
9834;SDS011;69850;50.942;13.748;2024-01-07T00:24:38;27.80;;;11.98;;
9834;SDS011;69850;50.942;13.748;2024-01-07T00:27:59;49.45;;;23.58;;
9834;SDS011;69850;50.942;13.748;2024-01-07T00:31:19;22.52;;;11.13;;
9834;SDS011;69850;50.942;13.748;2024-01-07T00:34:40;46.20;;;22.02;;
9834;SDS011;69850;50.942;13.748;2024-01-07T00:38:00;50.80;;;23.60;;
9834;SDS011;69850;50.942;13.748;2024-01-07T00:41:21;50.10;;;23.67;;
9834;SDS011;69850;50.942;13.748;2024-01-07T00:44:42;49.58;;;23.45;;
9834;SDS011;69850;50.942;13.748;2024-01-07T00:48:02;48.35;;;23.30;;
9834;SDS011;69850;50.942;13.748;2024-01-07T00:51:23;48.92;;;21.70;;
9834;SDS011;69850;50.942;13.748;2024-01-07T00:54:44;30.70;;;13.15;;
9834;SDS011;69850;50.942;13.748;2024-01-07T00:58:04;48.05;;;21.83;;
9834;SDS011;69850;50.942;13.748;2024-01-07T01:01:25;39.55;;;20.65;;
9834;SDS011;69850;50.942;13.748;2024-01-07T01:04:46;42.85;;;20.40;;
9834;SDS011;69850;50.942;13.748;2024-01-07T01:08:07;39.70;;;20.10;;
9834;SDS011;69850;50.942;13.748;2024-01-07T01:11:28;41.25;;;19.60;;
9834;SDS011;69850;50.942;13.748;2024-01-07T01:14:48;38.78;;;19.38;;
9834;SDS011;69850;50.942;13.748;2024-01-07T01:18:09;40.25;;;20.80;;
9834;SDS011;69850;50.942;13.748;2024-01-07T01:21:29;36.75;;;19.08;;
9834;SDS011;69850;50.942;13.748;2024-01-07T01:24:50;39.30;;;18.25;;
9834;SDS011;69850;50.942;13.748;2024-01-07T01:28:13;37.70;;;19.08;;
9834;SDS011;69850;50.942;13.748;2024-01-07T01:31:33;37.63;;;18.55;;
9834;SDS011;69850;50.942;13.748;2024-01-07T01:34:54;40.53;;;19.23;;
9834;SDS011;69850;50.942;13.748;2024-01-07T01:38:14;37.90;;;18.42;;
9834;SDS011;69850;50.942;13.748;2024-01-07T01:41:35;38.25;;;18.98;;
9834;SDS011;69850;50.942;13.748;2024-01-07T01:44:56;39.33;;;19.08;;
9834;SDS011;69850;50.942;13.748;2024-01-07T01:48:19;38.30;;;18.75;;
9834;SDS011;69850;50.942;13.748;2024-01-07T01:51:40;38.35;;;18.90;;
9834;SDS011;69850;50.942;13.748;2024-01-07T01:55:01;35.35;;;16.08;;
9834;SDS011;69850;50.942;13.748;2024-01-07T01:58:22;23.77;;;10.70;;
9834;SDS011;69850;50.942;13.748;2024-01-07T02:01:43;35.55;;;16.83;;
9834;SDS011;69850;50.942;13.748;2024-01-07T02:05:04;35.28;;;18.30;;
9834;SDS011;69850;50.942;13.748;2024-01-07T02:08:25;38.22;;;18.70;;
9834;SDS011;69850;50.942;13.748;2024-01-07T02:15:24;38.17;;;18.13;;
9834;SDS011;69850;50.942;13.748;2024-01-07T02:18:45;37.47;;;17.70;;
9834;SDS011;69850;50.942;13.748;2024-01-07T02:22:06;41.92;;;18.83;;
9834;SDS011;69850;50.942;13.748;2024-01-07T02:25:26;43.70;;;20.30;;
9834;SDS011;69850;50.942;13.748;2024-01-07T02:28:47;35.97;;;16.50;;
9834;SDS011;69850;50.942;13.748;2024-01-07T02:32:07;41.25;;;20.05;;
9834;SDS011;69850;50.942;13.748;2024-01-07T02:35:28;15.95;;;6.07;;
9834;SDS011;69850;50.942;13.748;2024-01-07T02:38:49;24.95;;;11.05;;
9834;SDS011;69850;50.942;13.748;2024-01-07T02:42:10;35.90;;;16.95;;
9834;SDS011;69850;50.942;13.748;2024-01-07T02:45:30;39.92;;;17.95;;
9834;SDS011;69850;50.942;13.748;2024-01-07T02:48:51;39.05;;;17.80;;
9834;SDS011;69850;50.942;13.748;2024-01-07T02:52:12;32.78;;;16.83;;
9834;SDS011;69850;50.942;13.748;2024-01-07T02:55:32;37.67;;;17.23;;
9834;SDS011;69850;50.942;13.748;2024-01-07T02:58:53;36.80;;;18.15;;
9834;SDS011;69850;50.942;13.748;2024-01-07T03:02:13;44.78;;;18.05;;
9834;SDS011;69850;50.942;13.748;2024-01-07T03:05:34;35.92;;;17.65;;
9834;SDS011;69850;50.942;13.748;2024-01-07T03:08:55;32.47;;;14.93;;
9834;SDS011;69850;50.942;13.748;2024-01-07T03:12:15;31.77;;;16.83;;
9834;SDS011;69850;50.942;13.748;2024-01-07T03:15:36;34.92;;;16.95;;
9834;SDS011;69850;50.942;13.748;2024-01-07T03:18:58;32.78;;;15.30;;
9834;SDS011;69850;50.942;13.748;2024-01-07T03:22:18;30.00;;;14.40;;
9834;SDS011;69850;50.942;13.748;2024-01-07T03:25:39;34.38;;;16.60;;
9834;SDS011;69850;50.942;13.748;2024-01-07T03:29:00;37.38;;;16.65;;
9834;SDS011;69850;50.942;13.748;2024-01-07T03:32:22;36.35;;;17.05;;
9834;SDS011;69850;50.942;13.748;2024-01-07T03:35:42;29.45;;;15.50;;
9834;SDS011;69850;50.942;13.748;2024-01-07T03:39:03;34.35;;;16.92;;
9834;SDS011;69850;50.942;13.748;2024-01-07T03:42:24;29.67;;;15.95;;
9834;SDS011;69850;50.942;13.748;2024-01-07T03:45:44;28.00;;;14.85;;
9834;SDS011;69850;50.942;13.748;2024-01-07T03:49:05;26.75;;;14.05;;
9834;SDS011;69850;50.942;13.748;2024-01-07T03:52:25;30.33;;;13.77;;
9834;SDS011;69850;50.942;13.748;2024-01-07T03:55:46;29.02;;;14.90;;
9834;SDS011;69850;50.942;13.748;2024-01-07T03:59:07;30.77;;;15.75;;
9834;SDS011;69850;50.942;13.748;2024-01-07T04:02:27;33.30;;;15.27;;
9834;SDS011;69850;50.942;13.748;2024-01-07T04:05:48;31.48;;;16.13;;
9834;SDS011;69850;50.942;13.748;2024-01-07T04:09:08;30.92;;;15.82;;
9834;SDS011;69850;50.942;13.748;2024-01-07T04:12:29;25.25;;;11.35;;
9834;SDS011;69850;50.942;13.748;2024-01-07T04:15:50;22.38;;;8.00;;
9834;SDS011;69850;50.942;13.748;2024-01-07T04:19:10;29.25;;;13.77;;
9834;SDS011;69850;50.942;13.748;2024-01-07T04:22:31;16.60;;;7.35;;
9834;SDS011;69850;50.942;13.748;2024-01-07T04:25:51;32.22;;;15.93;;
9834;SDS011;69850;50.942;13.748;2024-01-07T04:29:12;30.33;;;14.85;;
9834;SDS011;69850;50.942;13.748;2024-01-07T04:32:33;23.25;;;12.18;;
9834;SDS011;69850;50.942;13.748;2024-01-07T04:35:53;31.67;;;15.15;;
9834;SDS011;69850;50.942;13.748;2024-01-07T04:39:18;16.73;;;8.38;;
9834;SDS011;69850;50.942;13.748;2024-01-07T04:42:38;32.33;;;14.57;;
9834;SDS011;69850;50.942;13.748;2024-01-07T04:45:59;31.10;;;14.95;;
9834;SDS011;69850;50.942;13.748;2024-01-07T04:49:20;29.45;;;15.02;;
9834;SDS011;69850;50.942;13.748;2024-01-07T04:52:40;32.20;;;16.15;;
9834;SDS011;69850;50.942;13.748;2024-01-07T04:56:01;34.03;;;15.23;;
9834;SDS011;69850;50.942;13.748;2024-01-07T04:59:22;22.83;;;9.93;;
9834;SDS011;69850;50.942;13.748;2024-01-07T05:02:43;25.20;;;13.73;;
9834;SDS011;69850;50.942;13.748;2024-01-07T05:06:04;35.78;;;15.77;;
9834;SDS011;69850;50.942;13.748;2024-01-07T05:09:24;32.50;;;14.40;;
9834;SDS011;69850;50.942;13.748;2024-01-07T05:12:45;28.00;;;14.50;;
9834;SDS011;69850;50.942;13.748;2024-01-07T05:16:06;27.67;;;14.27;;
9834;SDS011;69850;50.942;13.748;2024-01-07T05:19:26;30.30;;;14.55;;
9834;SDS011;69850;50.942;13.748;2024-01-07T05:22:47;28.77;;;14.15;;
9834;SDS011;69850;50.942;13.748;2024-01-07T05:26:08;18.45;;;9.38;;
9834;SDS011;69850;50.942;13.748;2024-01-07T05:29:28;27.85;;;14.95;;
9834;SDS011;69850;50.942;13.748;2024-01-07T05:32:49;22.85;;;9.88;;
9834;SDS011;69850;50.942;13.748;2024-01-07T05:36:11;26.55;;;13.88;;
9834;SDS011;69850;50.942;13.748;2024-01-07T05:39:32;28.25;;;14.20;;
9834;SDS011;69850;50.942;13.748;2024-01-07T05:42:52;15.85;;;8.18;;
9834;SDS011;69850;50.942;13.748;2024-01-07T05:46:13;14.27;;;6.32;;
9834;SDS011;69850;50.942;13.748;2024-01-07T05:49:34;14.07;;;7.35;;
9834;SDS011;69850;50.942;13.748;2024-01-07T05:52:54;32.38;;;14.07;;
9834;SDS011;69850;50.942;13.748;2024-01-07T05:56:15;27.67;;;13.52;;
9834;SDS011;69850;50.942;13.748;2024-01-07T05:59:35;31.77;;;14.55;;
9834;SDS011;69850;50.942;13.748;2024-01-07T06:02:57;24.67;;;13.15;;
9834;SDS011;69850;50.942;13.748;2024-01-07T06:06:18;18.20;;;8.05;;
9834;SDS011;69850;50.942;13.748;2024-01-07T06:09:39;21.17;;;11.32;;
9834;SDS011;69850;50.942;13.748;2024-01-07T06:12:59;25.42;;;12.35;;
9834;SDS011;69850;50.942;13.748;2024-01-07T06:16:20;13.05;;;4.40;;
9834;SDS011;69850;50.942;13.748;2024-01-07T06:19:41;27.25;;;12.27;;
9834;SDS011;69850;50.942;13.748;2024-01-07T06:23:01;23.33;;;11.43;;
9834;SDS011;69850;50.942;13.748;2024-01-07T06:26:22;27.33;;;13.68;;
9834;SDS011;69850;50.942;13.748;2024-01-07T06:29:42;28.05;;;12.20;;
9834;SDS011;69850;50.942;13.748;2024-01-07T06:33:03;14.43;;;7.57;;
9834;SDS011;69850;50.942;13.748;2024-01-07T06:36:25;25.60;;;10.98;;
9834;SDS011;69850;50.942;13.748;2024-01-07T06:39:45;23.70;;;11.38;;
9834;SDS011;69850;50.942;13.748;2024-01-07T06:43:06;23.42;;;11.75;;
9834;SDS011;69850;50.942;13.748;2024-01-07T06:46:27;13.90;;;6.03;;
9834;SDS011;69850;50.942;13.748;2024-01-07T06:49:47;9.35;;;4.75;;
9834;SDS011;69850;50.942;13.748;2024-01-07T06:53:08;20.67;;;8.02;;
9834;SDS011;69850;50.942;13.748;2024-01-07T06:56:29;19.00;;;10.13;;
9834;SDS011;69850;50.942;13.748;2024-01-07T06:59:49;17.52;;;8.68;;
9834;SDS011;69850;50.942;13.748;2024-01-07T07:03:10;16.52;;;8.48;;
9834;SDS011;69850;50.942;13.748;2024-01-07T07:06:31;18.83;;;8.23;;
9834;SDS011;69850;50.942;13.748;2024-01-07T07:09:52;12.60;;;5.13;;
9834;SDS011;69850;50.942;13.748;2024-01-07T07:13:13;15.95;;;7.10;;
9834;SDS011;69850;50.942;13.748;2024-01-07T07:16:34;11.25;;;4.78;;
9834;SDS011;69850;50.942;13.748;2024-01-07T07:19:55;20.88;;;10.02;;
9834;SDS011;69850;50.942;13.748;2024-01-07T07:23:16;18.85;;;9.63;;
9834;SDS011;69850;50.942;13.748;2024-01-07T07:26:36;8.50;;;4.60;;
9834;SDS011;69850;50.942;13.748;2024-01-07T07:30:00;12.23;;;5.95;;
9834;SDS011;69850;50.942;13.748;2024-01-07T07:33:21;15.05;;;8.13;;
9834;SDS011;69850;50.942;13.748;2024-01-07T07:36:42;8.07;;;3.60;;
9834;SDS011;69850;50.942;13.748;2024-01-07T07:40:05;11.32;;;6.60;;
9834;SDS011;69850;50.942;13.748;2024-01-07T07:43:26;11.05;;;4.03;;
9834;SDS011;69850;50.942;13.748;2024-01-07T07:46:47;16.55;;;8.05;;
9834;SDS011;69850;50.942;13.748;2024-01-07T07:50:08;8.48;;;3.80;;
9834;SDS011;69850;50.942;13.748;2024-01-07T07:53:30;10.60;;;5.18;;
9834;SDS011;69850;50.942;13.748;2024-01-07T07:56:51;13.60;;;7.65;;
9834;SDS011;69850;50.942;13.748;2024-01-07T08:00:13;12.10;;;6.15;;
9834;SDS011;69850;50.942;13.748;2024-01-07T08:03:34;15.65;;;8.23;;
9834;SDS011;69850;50.942;13.748;2024-01-07T08:06:55;14.20;;;7.95;;
9834;SDS011;69850;50.942;13.748;2024-01-07T08:10:16;6.07;;;3.58;;
9834;SDS011;69850;50.942;13.748;2024-01-07T08:13:37;11.95;;;4.20;;
9834;SDS011;69850;50.942;13.748;2024-01-07T08:16:58;14.23;;;7.63;;
9834;SDS011;69850;50.942;13.748;2024-01-07T08:20:19;14.85;;;7.60;;
9834;SDS011;69850;50.942;13.748;2024-01-07T08:23:40;14.00;;;7.57;;
9834;SDS011;69850;50.942;13.748;2024-01-07T08:27:01;11.05;;;5.38;;
9834;SDS011;69850;50.942;13.748;2024-01-07T08:30:23;2.75;;;1.83;;
9834;SDS011;69850;50.942;13.748;2024-01-07T08:33:43;12.23;;;7.40;;
9834;SDS011;69850;50.942;13.748;2024-01-07T08:37:04;14.70;;;7.95;;
9834;SDS011;69850;50.942;13.748;2024-01-07T08:40:25;6.75;;;2.33;;
9834;SDS011;69850;50.942;13.748;2024-01-07T08:43:45;5.32;;;2.90;;
9834;SDS011;69850;50.942;13.748;2024-01-07T08:47:06;9.60;;;5.53;;
9834;SDS011;69850;50.942;13.748;2024-01-07T08:50:27;11.85;;;6.97;;
9834;SDS011;69850;50.942;13.748;2024-01-07T08:53:47;8.40;;;3.10;;
9834;SDS011;69850;50.942;13.748;2024-01-07T08:57:09;11.02;;;5.93;;
9834;SDS011;69850;50.942;13.748;2024-01-07T09:00:29;5.88;;;3.58;;
9834;SDS011;69850;50.942;13.748;2024-01-07T09:03:51;8.52;;;5.22;;
9834;SDS011;69850;50.942;13.748;2024-01-07T09:07:12;10.88;;;5.57;;
9834;SDS011;69850;50.942;13.748;2024-01-07T09:10:33;3.55;;;1.88;;
9834;SDS011;69850;50.942;13.748;2024-01-07T09:13:53;9.88;;;5.60;;
9834;SDS011;69850;50.942;13.748;2024-01-07T09:17:16;3.67;;;1.95;;
9834;SDS011;69850;50.942;13.748;2024-01-07T09:20:37;2.65;;;1.55;;
9834;SDS011;69850;50.942;13.748;2024-01-07T09:23:58;6.07;;;2.92;;
9834;SDS011;69850;50.942;13.748;2024-01-07T09:27:19;8.63;;;4.97;;
9834;SDS011;69850;50.942;13.748;2024-01-07T09:30:40;10.05;;;4.00;;
9834;SDS011;69850;50.942;13.748;2024-01-07T09:34:00;7.70;;;3.35;;
9834;SDS011;69850;50.942;13.748;2024-01-07T09:37:22;3.67;;;1.88;;
9834;SDS011;69850;50.942;13.748;2024-01-07T09:40:43;2.80;;;1.30;;
9834;SDS011;69850;50.942;13.748;2024-01-07T09:44:03;3.55;;;2.38;;
9834;SDS011;69850;50.942;13.748;2024-01-07T09:47:24;3.90;;;2.38;;
9834;SDS011;69850;50.942;13.748;2024-01-07T09:50:45;4.65;;;2.33;;
9834;SDS011;69850;50.942;13.748;2024-01-07T09:54:06;5.40;;;2.13;;
9834;SDS011;69850;50.942;13.748;2024-01-07T09:57:31;7.88;;;4.90;;
9834;SDS011;69850;50.942;13.748;2024-01-07T10:00:54;11.15;;;5.63;;
9834;SDS011;69850;50.942;13.748;2024-01-07T10:04:14;8.98;;;4.50;;
9834;SDS011;69850;50.942;13.748;2024-01-07T10:07:36;2.20;;;1.23;;
9834;SDS011;69850;50.942;13.748;2024-01-07T10:10:57;3.92;;;2.25;;
9834;SDS011;69850;50.942;13.748;2024-01-07T10:14:18;6.93;;;3.22;;
9834;SDS011;69850;50.942;13.748;2024-01-07T10:17:42;5.78;;;3.33;;
9834;SDS011;69850;50.942;13.748;2024-01-07T10:21:03;7.95;;;4.65;;
9834;SDS011;69850;50.942;13.748;2024-01-07T10:24:23;6.80;;;3.85;;
9834;SDS011;69850;50.942;13.748;2024-01-07T10:27:44;3.97;;;1.92;;
9834;SDS011;69850;50.942;13.748;2024-01-07T10:31:05;6.85;;;1.65;;
9834;SDS011;69850;50.942;13.748;2024-01-07T10:34:26;3.80;;;2.05;;
9834;SDS011;69850;50.942;13.748;2024-01-07T10:37:49;4.35;;;2.05;;
9834;SDS011;69850;50.942;13.748;2024-01-07T10:41:10;10.57;;;5.10;;
9834;SDS011;69850;50.942;13.748;2024-01-07T10:44:32;2.65;;;1.73;;
9834;SDS011;69850;50.942;13.748;2024-01-07T10:47:54;4.45;;;1.98;;
9834;SDS011;69850;50.942;13.748;2024-01-07T10:51:15;6.82;;;3.60;;
9834;SDS011;69850;50.942;13.748;2024-01-07T10:54:37;2.95;;;2.08;;
9834;SDS011;69850;50.942;13.748;2024-01-07T10:57:57;3.35;;;1.95;;
9834;SDS011;69850;50.942;13.748;2024-01-07T11:01:19;4.35;;;2.22;;
9834;SDS011;69850;50.942;13.748;2024-01-07T11:04:45;5.80;;;3.45;;
9834;SDS011;69850;50.942;13.748;2024-01-07T11:11:44;4.60;;;1.70;;
9834;SDS011;69850;50.942;13.748;2024-01-07T11:15:05;7.38;;;3.95;;
9834;SDS011;69850;50.942;13.748;2024-01-07T11:18:26;4.55;;;2.47;;
9834;SDS011;69850;50.942;13.748;2024-01-07T11:21:51;5.40;;;3.13;;
9834;SDS011;69850;50.942;13.748;2024-01-07T11:25:28;6.57;;;3.35;;
9834;SDS011;69850;50.942;13.748;2024-01-07T11:28:52;3.75;;;2.20;;
9834;SDS011;69850;50.942;13.748;2024-01-07T11:32:16;6.30;;;3.55;;
9834;SDS011;69850;50.942;13.748;2024-01-07T11:39:17;6.07;;;3.40;;
9834;SDS011;69850;50.942;13.748;2024-01-07T11:42:38;5.68;;;3.45;;
9834;SDS011;69850;50.942;13.748;2024-01-07T11:45:58;5.30;;;2.83;;
9834;SDS011;69850;50.942;13.748;2024-01-07T11:49:19;5.15;;;3.15;;
9834;SDS011;69850;50.942;13.748;2024-01-07T11:52:41;6.45;;;3.28;;
9834;SDS011;69850;50.942;13.748;2024-01-07T11:56:02;5.47;;;3.38;;
9834;SDS011;69850;50.942;13.748;2024-01-07T11:59:23;6.68;;;4.25;;
9834;SDS011;69850;50.942;13.748;2024-01-07T12:02:45;2.17;;;1.67;;
9834;SDS011;69850;50.942;13.748;2024-01-07T12:06:06;1.98;;;1.42;;
9834;SDS011;69850;50.942;13.748;2024-01-07T12:09:27;0.95;;;0.90;;
9834;SDS011;69850;50.942;13.748;2024-01-07T12:12:48;10.13;;;2.90;;
9834;SDS011;69850;50.942;13.748;2024-01-07T12:16:09;4.18;;;2.83;;
9834;SDS011;69850;50.942;13.748;2024-01-07T12:19:30;7.15;;;3.75;;
9834;SDS011;69850;50.942;13.748;2024-01-07T12:22:51;6.18;;;3.97;;
9834;SDS011;69850;50.942;13.748;2024-01-07T12:26:12;4.20;;;1.48;;
9834;SDS011;69850;50.942;13.748;2024-01-07T12:29:32;1.75;;;1.33;;
9834;SDS011;69850;50.942;13.748;2024-01-07T12:32:53;3.25;;;1.75;;
9834;SDS011;69850;50.942;13.748;2024-01-07T12:36:14;4.72;;;2.22;;
9834;SDS011;69850;50.942;13.748;2024-01-07T12:39:35;3.72;;;2.53;;
9834;SDS011;69850;50.942;13.748;2024-01-07T12:42:55;7.90;;;3.33;;
9834;SDS011;69850;50.942;13.748;2024-01-07T12:46:17;3.45;;;2.08;;
9834;SDS011;69850;50.942;13.748;2024-01-07T12:49:38;6.72;;;3.20;;
9834;SDS011;69850;50.942;13.748;2024-01-07T12:52:59;4.80;;;2.75;;
9834;SDS011;69850;50.942;13.748;2024-01-07T12:56:19;7.32;;;2.58;;
9834;SDS011;69850;50.942;13.748;2024-01-07T12:59:40;13.07;;;6.20;;
9834;SDS011;69850;50.942;13.748;2024-01-07T13:03:01;7.68;;;3.38;;
9834;SDS011;69850;50.942;13.748;2024-01-07T13:06:21;2.85;;;1.33;;
9834;SDS011;69850;50.942;13.748;2024-01-07T13:09:43;7.65;;;2.90;;
9834;SDS011;69850;50.942;13.748;2024-01-07T13:13:04;1.70;;;1.35;;
9834;SDS011;69850;50.942;13.748;2024-01-07T13:16:27;3.10;;;2.10;;
9834;SDS011;69850;50.942;13.748;2024-01-07T13:19:48;4.75;;;2.72;;
9834;SDS011;69850;50.942;13.748;2024-01-07T13:23:09;2.55;;;1.23;;
9834;SDS011;69850;50.942;13.748;2024-01-07T13:26:30;1.77;;;1.45;;
9834;SDS011;69850;50.942;13.748;2024-01-07T13:29:50;2.80;;;1.75;;
9834;SDS011;69850;50.942;13.748;2024-01-07T13:33:11;1.48;;;1.38;;
9834;SDS011;69850;50.942;13.748;2024-01-07T13:36:32;4.00;;;1.90;;
9834;SDS011;69850;50.942;13.748;2024-01-07T13:39:52;3.05;;;2.10;;
9834;SDS011;69850;50.942;13.748;2024-01-07T13:43:13;3.55;;;2.30;;
9834;SDS011;69850;50.942;13.748;2024-01-07T13:46:33;4.20;;;1.95;;
9834;SDS011;69850;50.942;13.748;2024-01-07T13:49:54;6.43;;;2.85;;
9834;SDS011;69850;50.942;13.748;2024-01-07T13:53:15;2.92;;;1.35;;
9834;SDS011;69850;50.942;13.748;2024-01-07T13:56:36;4.97;;;1.85;;
9834;SDS011;69850;50.942;13.748;2024-01-07T13:59:58;6.88;;;3.10;;
9834;SDS011;69850;50.942;13.748;2024-01-07T14:03:18;43.67;;;15.52;;
9834;SDS011;69850;50.942;13.748;2024-01-07T14:06:40;16.45;;;7.50;;
9834;SDS011;69850;50.942;13.748;2024-01-07T14:10:01;70.25;;;26.10;;
9834;SDS011;69850;50.942;13.748;2024-01-07T14:13:26;2.72;;;1.48;;
9834;SDS011;69850;50.942;13.748;2024-01-07T14:16:46;5.85;;;3.20;;
9834;SDS011;69850;50.942;13.748;2024-01-07T14:20:07;4.68;;;1.65;;
9834;SDS011;69850;50.942;13.748;2024-01-07T14:23:28;7.05;;;3.08;;
9834;SDS011;69850;50.942;13.748;2024-01-07T14:26:51;3.35;;;2.10;;
9834;SDS011;69850;50.942;13.748;2024-01-07T14:30:12;23.40;;;10.65;;
9834;SDS011;69850;50.942;13.748;2024-01-07T14:33:33;27.13;;;12.38;;
9834;SDS011;69850;50.942;13.748;2024-01-07T14:36:54;4.95;;;3.08;;
9834;SDS011;69850;50.942;13.748;2024-01-07T14:40:14;34.75;;;12.95;;
9834;SDS011;69850;50.942;13.748;2024-01-07T14:43:35;5.38;;;2.92;;
9834;SDS011;69850;50.942;13.748;2024-01-07T14:46:56;4.05;;;2.13;;
9834;SDS011;69850;50.942;13.748;2024-01-07T14:50:16;10.50;;;5.13;;
9834;SDS011;69850;50.942;13.748;2024-01-07T14:53:37;2.35;;;1.55;;
9834;SDS011;69850;50.942;13.748;2024-01-07T14:56:58;7.00;;;3.88;;
9834;SDS011;69850;50.942;13.748;2024-01-07T15:00:19;5.03;;;3.22;;
9834;SDS011;69850;50.942;13.748;2024-01-07T15:03:40;4.43;;;2.83;;
9834;SDS011;69850;50.942;13.748;2024-01-07T15:07:01;3.38;;;1.83;;
9834;SDS011;69850;50.942;13.748;2024-01-07T15:10:22;8.57;;;4.57;;
9834;SDS011;69850;50.942;13.748;2024-01-07T15:13:42;1.65;;;1.17;;
9834;SDS011;69850;50.942;13.748;2024-01-07T15:17:04;2.05;;;1.38;;
9834;SDS011;69850;50.942;13.748;2024-01-07T15:20:25;4.93;;;2.78;;
9834;SDS011;69850;50.942;13.748;2024-01-07T15:23:45;2.38;;;1.65;;
9834;SDS011;69850;50.942;13.748;2024-01-07T15:27:06;3.00;;;1.63;;
9834;SDS011;69850;50.942;13.748;2024-01-07T15:30:27;2.03;;;1.08;;
9834;SDS011;69850;50.942;13.748;2024-01-07T15:33:47;3.15;;;1.85;;
9834;SDS011;69850;50.942;13.748;2024-01-07T15:37:08;3.67;;;2.15;;
9834;SDS011;69850;50.942;13.748;2024-01-07T15:40:29;3.13;;;2.13;;
9834;SDS011;69850;50.942;13.748;2024-01-07T15:43:51;2.92;;;2.38;;
9834;SDS011;69850;50.942;13.748;2024-01-07T15:47:11;3.05;;;1.77;;
9834;SDS011;69850;50.942;13.748;2024-01-07T15:50:32;3.80;;;2.30;;
9834;SDS011;69850;50.942;13.748;2024-01-07T15:53:52;6.00;;;3.30;;
9834;SDS011;69850;50.942;13.748;2024-01-07T15:57:13;1.23;;;0.82;;
9834;SDS011;69850;50.942;13.748;2024-01-07T16:00:34;1.02;;;0.80;;
9834;SDS011;69850;50.942;13.748;2024-01-07T16:03:54;4.50;;;2.40;;
9834;SDS011;69850;50.942;13.748;2024-01-07T16:07:15;1.92;;;1.60;;
9834;SDS011;69850;50.942;13.748;2024-01-07T16:10:36;3.80;;;2.00;;
9834;SDS011;69850;50.942;13.748;2024-01-07T16:13:56;3.40;;;1.23;;
9834;SDS011;69850;50.942;13.748;2024-01-07T16:17:17;2.17;;;1.48;;
9834;SDS011;69850;50.942;13.748;2024-01-07T16:20:37;2.95;;;1.42;;
9834;SDS011;69850;50.942;13.748;2024-01-07T16:24:00;5.38;;;2.97;;
9834;SDS011;69850;50.942;13.748;2024-01-07T16:27:21;4.60;;;2.47;;
9834;SDS011;69850;50.942;13.748;2024-01-07T16:30:41;4.47;;;2.78;;
9834;SDS011;69850;50.942;13.748;2024-01-07T16:34:02;6.95;;;2.78;;
9834;SDS011;69850;50.942;13.748;2024-01-07T16:37:24;3.28;;;1.45;;
9834;SDS011;69850;50.942;13.748;2024-01-07T16:40:44;5.28;;;2.75;;
9834;SDS011;69850;50.942;13.748;2024-01-07T16:44:05;6.03;;;3.05;;
9834;SDS011;69850;50.942;13.748;2024-01-07T16:47:28;43.00;;;12.52;;
9834;SDS011;69850;50.942;13.748;2024-01-07T16:50:49;13.45;;;5.20;;
9834;SDS011;69850;50.942;13.748;2024-01-07T16:54:12;29.70;;;11.00;;
9834;SDS011;69850;50.942;13.748;2024-01-07T16:57:32;13.95;;;5.22;;
9834;SDS011;69850;50.942;13.748;2024-01-07T17:00:53;16.45;;;7.20;;
9834;SDS011;69850;50.942;13.748;2024-01-07T17:04:17;5.72;;;2.28;;
9834;SDS011;69850;50.942;13.748;2024-01-07T17:07:40;3.00;;;1.65;;
9834;SDS011;69850;50.942;13.748;2024-01-07T17:11:01;5.40;;;3.15;;
9834;SDS011;69850;50.942;13.748;2024-01-07T17:14:22;5.53;;;2.47;;
9834;SDS011;69850;50.942;13.748;2024-01-07T17:17:42;5.80;;;3.17;;
9834;SDS011;69850;50.942;13.748;2024-01-07T17:21:03;0.73;;;0.70;;
9834;SDS011;69850;50.942;13.748;2024-01-07T17:24:24;21.95;;;9.43;;
9834;SDS011;69850;50.942;13.748;2024-01-07T17:27:44;4.97;;;2.35;;
9834;SDS011;69850;50.942;13.748;2024-01-07T17:31:05;5.32;;;3.17;;
9834;SDS011;69850;50.942;13.748;2024-01-07T17:34:27;2.22;;;1.63;;
9834;SDS011;69850;50.942;13.748;2024-01-07T17:37:48;7.93;;;3.33;;
9834;SDS011;69850;50.942;13.748;2024-01-07T17:41:08;5.57;;;2.90;;
9834;SDS011;69850;50.942;13.748;2024-01-07T17:44:30;4.93;;;3.08;;
9834;SDS011;69850;50.942;13.748;2024-01-07T17:47:51;4.65;;;1.50;;
9834;SDS011;69850;50.942;13.748;2024-01-07T17:51:17;4.05;;;1.80;;
9834;SDS011;69850;50.942;13.748;2024-01-07T17:54:38;7.93;;;3.88;;
9834;SDS011;69850;50.942;13.748;2024-01-07T17:58:01;6.18;;;3.92;;
9834;SDS011;69850;50.942;13.748;2024-01-07T18:01:22;7.38;;;4.22;;
9834;SDS011;69850;50.942;13.748;2024-01-07T18:04:43;2.95;;;2.22;;
9834;SDS011;69850;50.942;13.748;2024-01-07T18:08:04;5.25;;;3.20;;
9834;SDS011;69850;50.942;13.748;2024-01-07T18:11:25;2.47;;;1.55;;
9834;SDS011;69850;50.942;13.748;2024-01-07T18:14:45;7.13;;;3.35;;
9834;SDS011;69850;50.942;13.748;2024-01-07T18:18:06;4.70;;;2.08;;
9834;SDS011;69850;50.942;13.748;2024-01-07T18:21:28;4.05;;;2.28;;
9834;SDS011;69850;50.942;13.748;2024-01-07T18:24:51;4.53;;;1.92;;
9834;SDS011;69850;50.942;13.748;2024-01-07T18:28:12;5.05;;;3.53;;
9834;SDS011;69850;50.942;13.748;2024-01-07T18:31:32;3.90;;;2.20;;
9834;SDS011;69850;50.942;13.748;2024-01-07T18:34:53;4.57;;;1.98;;
9834;SDS011;69850;50.942;13.748;2024-01-07T18:38:13;4.90;;;2.92;;
9834;SDS011;69850;50.942;13.748;2024-01-07T18:41:37;5.85;;;3.70;;
9834;SDS011;69850;50.942;13.748;2024-01-07T18:44:58;7.22;;;4.05;;
9834;SDS011;69850;50.942;13.748;2024-01-07T18:48:18;7.85;;;4.18;;
9834;SDS011;69850;50.942;13.748;2024-01-07T18:51:40;7.97;;;4.60;;
9834;SDS011;69850;50.942;13.748;2024-01-07T18:55:01;7.28;;;4.45;;
9834;SDS011;69850;50.942;13.748;2024-01-07T18:58:26;8.63;;;4.25;;
9834;SDS011;69850;50.942;13.748;2024-01-07T19:01:47;8.50;;;4.75;;
9834;SDS011;69850;50.942;13.748;2024-01-07T19:05:08;6.22;;;3.60;;
9834;SDS011;69850;50.942;13.748;2024-01-07T19:08:30;6.30;;;3.90;;
9834;SDS011;69850;50.942;13.748;2024-01-07T19:11:51;8.05;;;4.53;;
9834;SDS011;69850;50.942;13.748;2024-01-07T19:15:12;4.90;;;2.92;;
9834;SDS011;69850;50.942;13.748;2024-01-07T19:18:32;3.08;;;2.05;;
9834;SDS011;69850;50.942;13.748;2024-01-07T19:21:54;5.05;;;2.67;;
9834;SDS011;69850;50.942;13.748;2024-01-07T19:25:14;3.28;;;1.50;;
9834;SDS011;69850;50.942;13.748;2024-01-07T19:28:35;7.05;;;4.05;;
9834;SDS011;69850;50.942;13.748;2024-01-07T19:31:56;8.43;;;4.45;;
9834;SDS011;69850;50.942;13.748;2024-01-07T19:35:18;3.28;;;1.42;;
9834;SDS011;69850;50.942;13.748;2024-01-07T19:38:38;3.78;;;2.20;;
9834;SDS011;69850;50.942;13.748;2024-01-07T19:41:59;3.83;;;2.55;;
9834;SDS011;69850;50.942;13.748;2024-01-07T19:45:20;5.65;;;2.45;;
9834;SDS011;69850;50.942;13.748;2024-01-07T19:48:41;7.80;;;3.25;;
9834;SDS011;69850;50.942;13.748;2024-01-07T19:52:02;5.20;;;2.35;;
9834;SDS011;69850;50.942;13.748;2024-01-07T19:55:22;8.45;;;4.53;;
9834;SDS011;69850;50.942;13.748;2024-01-07T19:58:43;15.48;;;5.75;;
9834;SDS011;69850;50.942;13.748;2024-01-07T20:02:04;12.32;;;5.80;;
9834;SDS011;69850;50.942;13.748;2024-01-07T20:05:24;8.52;;;5.10;;
9834;SDS011;69850;50.942;13.748;2024-01-07T20:08:46;5.80;;;2.92;;